sensor_id;sensor_type;location;lat;lon;timestamp;temperature;humidity
3660;DHT22;1846;51.482;7.224;2023-02-28T00:00:26;1.90;99.90
3660;DHT22;1846;51.482;7.224;2023-02-28T00:02:55;1.80;99.90
3660;DHT22;1846;51.482;7.224;2023-02-28T00:05:24;1.80;99.90
3660;DHT22;1846;51.482;7.224;2023-02-28T00:07:52;1.70;99.90
3660;DHT22;1846;51.482;7.224;2023-02-28T00:10:20;1.70;99.90
3660;DHT22;1846;51.482;7.224;2023-02-28T00:12:51;1.70;99.90
3660;DHT22;1846;51.482;7.224;2023-02-28T00:15:18;1.60;99.90
3660;DHT22;1846;51.482;7.224;2023-02-28T00:17:45;1.60;99.90
3660;DHT22;1846;51.482;7.224;2023-02-28T00:20:13;1.50;99.90
3660;DHT22;1846;51.482;7.224;2023-02-28T00:22:43;1.50;99.90
3660;DHT22;1846;51.482;7.224;2023-02-28T00:25:12;1.50;99.90
3660;DHT22;1846;51.482;7.224;2023-02-28T00:27:40;1.40;99.90
3660;DHT22;1846;51.482;7.224;2023-02-28T00:30:11;1.40;99.90
3660;DHT22;1846;51.482;7.224;2023-02-28T00:32:38;1.40;99.90
3660;DHT22;1846;51.482;7.224;2023-02-28T00:35:07;1.30;99.90
3660;DHT22;1846;51.482;7.224;2023-02-28T00:37:34;1.30;99.90
3660;DHT22;1846;51.482;7.224;2023-02-28T00:40:01;1.20;99.90
3660;DHT22;1846;51.482;7.224;2023-02-28T00:42:31;1.20;99.90
3660;DHT22;1846;51.482;7.224;2023-02-28T00:44:58;1.20;99.90
3660;DHT22;1846;51.482;7.224;2023-02-28T00:47:26;1.20;99.90
3660;DHT22;1846;51.482;7.224;2023-02-28T00:49:53;1.20;99.90
3660;DHT22;1846;51.482;7.224;2023-02-28T00:52:20;1.20;99.90
3660;DHT22;1846;51.482;7.224;2023-02-28T00:54:47;1.10;99.90
3660;DHT22;1846;51.482;7.224;2023-02-28T00:57:14;1.10;99.90
3660;DHT22;1846;51.482;7.224;2023-02-28T00:59:40;1.00;99.90
3660;DHT22;1846;51.482;7.224;2023-02-28T01:02:07;1.10;99.90
3660;DHT22;1846;51.482;7.224;2023-02-28T01:04:35;1.00;99.90
3660;DHT22;1846;51.482;7.224;2023-02-28T01:07:02;1.00;99.90
3660;DHT22;1846;51.482;7.224;2023-02-28T01:09:30;1.00;99.90
3660;DHT22;1846;51.482;7.224;2023-02-28T01:11:56;1.00;99.90
3660;DHT22;1846;51.482;7.224;2023-02-28T01:14:23;0.90;99.90
3660;DHT22;1846;51.482;7.224;2023-02-28T01:16:50;0.90;99.90
3660;DHT22;1846;51.482;7.224;2023-02-28T01:19:18;0.90;99.90
3660;DHT22;1846;51.482;7.224;2023-02-28T01:21:46;0.90;99.90
3660;DHT22;1846;51.482;7.224;2023-02-28T01:24:13;0.90;99.90
3660;DHT22;1846;51.482;7.224;2023-02-28T01:26:40;0.90;99.90
3660;DHT22;1846;51.482;7.224;2023-02-28T01:29:07;0.90;99.90
3660;DHT22;1846;51.482;7.224;2023-02-28T01:31:33;0.90;99.90
3660;DHT22;1846;51.482;7.224;2023-02-28T01:34:00;0.80;99.90
3660;DHT22;1846;51.482;7.224;2023-02-28T01:36:27;0.80;99.90
3660;DHT22;1846;51.482;7.224;2023-02-28T01:38:56;0.80;99.90
3660;DHT22;1846;51.482;7.224;2023-02-28T01:41:25;0.80;99.90
3660;DHT22;1846;51.482;7.224;2023-02-28T01:43:56;0.80;99.90
3660;DHT22;1846;51.482;7.224;2023-02-28T01:46:23;0.80;99.90
3660;DHT22;1846;51.482;7.224;2023-02-28T01:48:54;0.80;99.90
3660;DHT22;1846;51.482;7.224;2023-02-28T01:51:28;0.80;99.90
3660;DHT22;1846;51.482;7.224;2023-02-28T01:54:01;0.80;99.90
3660;DHT22;1846;51.482;7.224;2023-02-28T01:56:32;0.80;99.90
3660;DHT22;1846;51.482;7.224;2023-02-28T01:59:00;0.70;99.90
3660;DHT22;1846;51.482;7.224;2023-02-28T02:01:28;0.70;99.90
3660;DHT22;1846;51.482;7.224;2023-02-28T02:03:58;0.60;99.90
3660;DHT22;1846;51.482;7.224;2023-02-28T02:06:29;0.60;99.90
3660;DHT22;1846;51.482;7.224;2023-02-28T02:08:57;0.60;99.90
3660;DHT22;1846;51.482;7.224;2023-02-28T02:11:25;0.50;99.90
3660;DHT22;1846;51.482;7.224;2023-02-28T02:14:23;0.50;99.90
3660;DHT22;1846;51.482;7.224;2023-02-28T02:17:05;0.50;99.90
3660;DHT22;1846;51.482;7.224;2023-02-28T02:20:01;0.50;99.90
3660;DHT22;1846;51.482;7.224;2023-02-28T02:22:52;0.40;99.90
3660;DHT22;1846;51.482;7.224;2023-02-28T02:25:28;0.50;99.90
3660;DHT22;1846;51.482;7.224;2023-02-28T02:34:21;0.50;99.90
3660;DHT22;1846;51.482;7.224;2023-02-28T02:36:53;0.50;99.90
3660;DHT22;1846;51.482;7.224;2023-02-28T02:39:30;0.40;99.90
3660;DHT22;1846;51.482;7.224;2023-02-28T02:42:00;0.30;99.90
3660;DHT22;1846;51.482;7.224;2023-02-28T02:44:31;0.30;99.90
3660;DHT22;1846;51.482;7.224;2023-02-28T02:47:05;0.30;99.90
3660;DHT22;1846;51.482;7.224;2023-02-28T02:49:36;0.30;99.90
3660;DHT22;1846;51.482;7.224;2023-02-28T02:52:07;0.30;99.90
3660;DHT22;1846;51.482;7.224;2023-02-28T02:54:37;0.30;99.90
3660;DHT22;1846;51.482;7.224;2023-02-28T02:57:07;0.20;99.90
3660;DHT22;1846;51.482;7.224;2023-02-28T02:59:35;0.30;99.90
3660;DHT22;1846;51.482;7.224;2023-02-28T03:02:06;0.30;99.90
3660;DHT22;1846;51.482;7.224;2023-02-28T03:04:40;0.30;99.90
3660;DHT22;1846;51.482;7.224;2023-02-28T03:07:08;0.30;99.90
3660;DHT22;1846;51.482;7.224;2023-02-28T03:09:35;0.30;99.90
3660;DHT22;1846;51.482;7.224;2023-02-28T03:12:03;0.30;99.90
3660;DHT22;1846;51.482;7.224;2023-02-28T03:14:44;0.30;99.90
3660;DHT22;1846;51.482;7.224;2023-02-28T03:17:38;0.30;99.90
3660;DHT22;1846;51.482;7.224;2023-02-28T03:20:17;0.20;99.90
3660;DHT22;1846;51.482;7.224;2023-02-28T03:23:02;0.20;99.90
3660;DHT22;1846;51.482;7.224;2023-02-28T03:25:34;0.20;99.90
3660;DHT22;1846;51.482;7.224;2023-02-28T03:28:09;0.20;99.90
3660;DHT22;1846;51.482;7.224;2023-02-28T03:30:49;0.20;99.90
3660;DHT22;1846;51.482;7.224;2023-02-28T03:33:21;0.10;99.90
3660;DHT22;1846;51.482;7.224;2023-02-28T03:35:52;0.10;99.90
3660;DHT22;1846;51.482;7.224;2023-02-28T03:38:27;0.10;99.90
3660;DHT22;1846;51.482;7.224;2023-02-28T03:41:00;0.00;99.90
3660;DHT22;1846;51.482;7.224;2023-02-28T03:43:31;-0.10;99.90
3660;DHT22;1846;51.482;7.224;2023-02-28T03:46:00;-0.10;99.90
3660;DHT22;1846;51.482;7.224;2023-02-28T03:48:34;-0.10;99.90
3660;DHT22;1846;51.482;7.224;2023-02-28T03:51:06;-0.10;99.90
3660;DHT22;1846;51.482;7.224;2023-02-28T03:53:37;-0.10;99.90
3660;DHT22;1846;51.482;7.224;2023-02-28T03:56:09;-0.10;99.90
3660;DHT22;1846;51.482;7.224;2023-02-28T03:58:43;-0.20;99.90
3660;DHT22;1846;51.482;7.224;2023-02-28T04:01:15;-0.20;99.90
3660;DHT22;1846;51.482;7.224;2023-02-28T04:03:45;-0.10;99.90
3660;DHT22;1846;51.482;7.224;2023-02-28T04:06:16;-0.20;99.90
3660;DHT22;1846;51.482;7.224;2023-02-28T04:08:44;-0.20;99.90
3660;DHT22;1846;51.482;7.224;2023-02-28T04:11:18;-0.10;99.90
3660;DHT22;1846;51.482;7.224;2023-02-28T04:13:46;-0.10;99.90
3660;DHT22;1846;51.482;7.224;2023-02-28T04:16:13;-0.10;99.90
3660;DHT22;1846;51.482;7.224;2023-02-28T04:18:41;-0.20;99.90
3660;DHT22;1846;51.482;7.224;2023-02-28T04:21:09;-0.20;99.90
3660;DHT22;1846;51.482;7.224;2023-02-28T04:23:41;-0.20;99.90
3660;DHT22;1846;51.482;7.224;2023-02-28T04:26:08;-0.20;99.90
3660;DHT22;1846;51.482;7.224;2023-02-28T04:28:37;-0.20;99.90
3660;DHT22;1846;51.482;7.224;2023-02-28T04:31:04;-0.20;99.90
3660;DHT22;1846;51.482;7.224;2023-02-28T04:33:32;-0.20;99.90
3660;DHT22;1846;51.482;7.224;2023-02-28T04:36:00;-0.20;99.90
3660;DHT22;1846;51.482;7.224;2023-02-28T04:38:28;-0.30;99.90
3660;DHT22;1846;51.482;7.224;2023-02-28T04:40:58;-0.30;99.90
3660;DHT22;1846;51.482;7.224;2023-02-28T04:43:26;-0.20;99.90
3660;DHT22;1846;51.482;7.224;2023-02-28T04:45:53;-0.30;99.90
3660;DHT22;1846;51.482;7.224;2023-02-28T04:48:22;-0.30;99.90
3660;DHT22;1846;51.482;7.224;2023-02-28T04:50:49;-0.30;99.90
3660;DHT22;1846;51.482;7.224;2023-02-28T04:53:16;-0.30;99.90
3660;DHT22;1846;51.482;7.224;2023-02-28T04:55:43;-0.20;99.90
3660;DHT22;1846;51.482;7.224;2023-02-28T04:58:12;-0.20;99.90
3660;DHT22;1846;51.482;7.224;2023-02-28T05:00:39;-0.30;99.90
3660;DHT22;1846;51.482;7.224;2023-02-28T05:03:06;-0.30;99.90
3660;DHT22;1846;51.482;7.224;2023-02-28T05:05:33;-0.30;99.90
3660;DHT22;1846;51.482;7.224;2023-02-28T05:08:00;-0.20;99.90
3660;DHT22;1846;51.482;7.224;2023-02-28T05:10:26;-0.20;99.90
3660;DHT22;1846;51.482;7.224;2023-02-28T05:12:53;-0.20;99.90
3660;DHT22;1846;51.482;7.224;2023-02-28T05:15:22;-0.30;99.90
3660;DHT22;1846;51.482;7.224;2023-02-28T05:17:49;-0.40;99.90
3660;DHT22;1846;51.482;7.224;2023-02-28T05:20:16;-0.40;99.90
3660;DHT22;1846;51.482;7.224;2023-02-28T05:22:43;-0.40;99.90
3660;DHT22;1846;51.482;7.224;2023-02-28T05:25:11;-0.40;99.90
3660;DHT22;1846;51.482;7.224;2023-02-28T05:27:39;-0.40;99.90
3660;DHT22;1846;51.482;7.224;2023-02-28T05:30:07;-0.50;99.90
3660;DHT22;1846;51.482;7.224;2023-02-28T05:32:37;-0.50;99.90
3660;DHT22;1846;51.482;7.224;2023-02-28T05:35:05;-0.50;99.90
3660;DHT22;1846;51.482;7.224;2023-02-28T05:40:00;-0.50;99.90
3660;DHT22;1846;51.482;7.224;2023-02-28T05:42:49;-0.50;99.90
3660;DHT22;1846;51.482;7.224;2023-02-28T05:52:12;-0.50;99.90
3660;DHT22;1846;51.482;7.224;2023-02-28T05:54:45;-0.50;99.90
3660;DHT22;1846;51.482;7.224;2023-02-28T05:57:12;-0.50;99.90
3660;DHT22;1846;51.482;7.224;2023-02-28T06:00:48;-0.60;99.90
3660;DHT22;1846;51.482;7.224;2023-02-28T06:03:21;-0.60;99.90
3660;DHT22;1846;51.482;7.224;2023-02-28T06:06:25;-0.60;99.90
3660;DHT22;1846;51.482;7.224;2023-02-28T06:17:44;-0.60;99.90
3660;DHT22;1846;51.482;7.224;2023-02-28T06:23:32;-0.50;99.90
3660;DHT22;1846;51.482;7.224;2023-02-28T06:25:59;-0.40;99.90
3660;DHT22;1846;51.482;7.224;2023-02-28T06:34:18;-0.40;99.90
3660;DHT22;1846;51.482;7.224;2023-02-28T06:39:40;-0.50;99.90
3660;DHT22;1846;51.482;7.224;2023-02-28T06:42:11;-0.40;99.90
3660;DHT22;1846;51.482;7.224;2023-02-28T06:44:38;-0.40;99.90
3660;DHT22;1846;51.482;7.224;2023-02-28T06:47:06;-0.40;99.90
3660;DHT22;1846;51.482;7.224;2023-02-28T06:49:35;-0.50;99.90
3660;DHT22;1846;51.482;7.224;2023-02-28T06:52:03;-0.40;99.90
3660;DHT22;1846;51.482;7.224;2023-02-28T06:54:29;-0.40;99.90
3660;DHT22;1846;51.482;7.224;2023-02-28T06:56:57;-0.40;99.90
3660;DHT22;1846;51.482;7.224;2023-02-28T06:59:24;-0.40;99.90
3660;DHT22;1846;51.482;7.224;2023-02-28T07:01:51;-0.40;99.90
3660;DHT22;1846;51.482;7.224;2023-02-28T07:04:18;-0.40;99.90
3660;DHT22;1846;51.482;7.224;2023-02-28T07:06:46;-0.30;99.90
3660;DHT22;1846;51.482;7.224;2023-02-28T07:09:13;-0.30;99.90
3660;DHT22;1846;51.482;7.224;2023-02-28T07:11:40;-0.20;99.90
3660;DHT22;1846;51.482;7.224;2023-02-28T07:14:08;-0.30;99.90
3660;DHT22;1846;51.482;7.224;2023-02-28T07:16:35;-0.20;99.90
3660;DHT22;1846;51.482;7.224;2023-02-28T07:19:02;-0.10;99.90
3660;DHT22;1846;51.482;7.224;2023-02-28T07:21:29;-0.20;99.90
3660;DHT22;1846;51.482;7.224;2023-02-28T07:23:57;-0.20;99.90
3660;DHT22;1846;51.482;7.224;2023-02-28T07:26:24;-0.10;99.90
3660;DHT22;1846;51.482;7.224;2023-02-28T07:28:51;-0.10;99.90
3660;DHT22;1846;51.482;7.224;2023-02-28T07:31:18;-0.10;99.90
3660;DHT22;1846;51.482;7.224;2023-02-28T07:33:46;0.00;99.90
3660;DHT22;1846;51.482;7.224;2023-02-28T07:36:15;0.00;99.90
3660;DHT22;1846;51.482;7.224;2023-02-28T07:38:44;0.00;99.90
3660;DHT22;1846;51.482;7.224;2023-02-28T07:41:21;0.00;99.90
3660;DHT22;1846;51.482;7.224;2023-02-28T07:43:49;0.10;99.90
3660;DHT22;1846;51.482;7.224;2023-02-28T07:46:17;0.20;99.90
3660;DHT22;1846;51.482;7.224;2023-02-28T07:48:46;0.30;99.90
3660;DHT22;1846;51.482;7.224;2023-02-28T07:51:13;0.20;99.90
3660;DHT22;1846;51.482;7.224;2023-02-28T07:53:41;0.20;99.90
3660;DHT22;1846;51.482;7.224;2023-02-28T07:56:14;0.20;99.90
3660;DHT22;1846;51.482;7.224;2023-02-28T07:58:44;0.30;99.90
3660;DHT22;1846;51.482;7.224;2023-02-28T08:01:13;0.40;99.90
3660;DHT22;1846;51.482;7.224;2023-02-28T08:03:48;0.40;99.90
3660;DHT22;1846;51.482;7.224;2023-02-28T08:06:18;0.50;99.90
3660;DHT22;1846;51.482;7.224;2023-02-28T08:08:48;0.60;96.20
3660;DHT22;1846;51.482;7.224;2023-02-28T08:11:18;0.70;96.00
3660;DHT22;1846;51.482;7.224;2023-02-28T08:13:54;0.90;87.00
3660;DHT22;1846;51.482;7.224;2023-02-28T08:16:36;1.00;83.10
3660;DHT22;1846;51.482;7.224;2023-02-28T08:24:08;1.40;62.20
3660;DHT22;1846;51.482;7.224;2023-02-28T08:26:37;1.40;55.40
3660;DHT22;1846;51.482;7.224;2023-02-28T08:29:06;1.40;50.50
3660;DHT22;1846;51.482;7.224;2023-02-28T08:31:33;1.40;49.30
3660;DHT22;1846;51.482;7.224;2023-02-28T08:34:09;1.40;45.80
3660;DHT22;1846;51.482;7.224;2023-02-28T08:36:38;1.30;42.40
3660;DHT22;1846;51.482;7.224;2023-02-28T08:39:06;1.30;43.00
3660;DHT22;1846;51.482;7.224;2023-02-28T08:41:33;1.50;43.10
3660;DHT22;1846;51.482;7.224;2023-02-28T08:44:00;1.60;40.60
3660;DHT22;1846;51.482;7.224;2023-02-28T08:46:31;1.70;39.50
3660;DHT22;1846;51.482;7.224;2023-02-28T08:49:01;2.00;32.80
3660;DHT22;1846;51.482;7.224;2023-02-28T08:51:29;2.00;31.30
3660;DHT22;1846;51.482;7.224;2023-02-28T08:53:58;2.00;30.60
3660;DHT22;1846;51.482;7.224;2023-02-28T08:59:01;2.10;28.90
3660;DHT22;1846;51.482;7.224;2023-02-28T09:01:28;2.20;28.00
3660;DHT22;1846;51.482;7.224;2023-02-28T09:03:58;2.30;26.30
3660;DHT22;1846;51.482;7.224;2023-02-28T09:06:27;2.40;23.10
3660;DHT22;1846;51.482;7.224;2023-02-28T09:08:56;2.40;19.60
3660;DHT22;1846;51.482;7.224;2023-02-28T09:11:24;2.50;17.90
3660;DHT22;1846;51.482;7.224;2023-02-28T09:13:52;2.50;16.50
3660;DHT22;1846;51.482;7.224;2023-02-28T09:16:23;2.60;15.20
3660;DHT22;1846;51.482;7.224;2023-02-28T09:19:04;2.70;14.90
3660;DHT22;1846;51.482;7.224;2023-02-28T09:21:34;2.80;12.60
3660;DHT22;1846;51.482;7.224;2023-02-28T09:24:04;2.70;10.90
3660;DHT22;1846;51.482;7.224;2023-02-28T09:26:37;2.60;10.20
3660;DHT22;1846;51.482;7.224;2023-02-28T09:29:17;2.70;10.30
3660;DHT22;1846;51.482;7.224;2023-02-28T09:31:47;2.80;11.20
3660;DHT22;1846;51.482;7.224;2023-02-28T09:34:33;2.80;9.50
3660;DHT22;1846;51.482;7.224;2023-02-28T09:37:02;2.70;8.00
3660;DHT22;1846;51.482;7.224;2023-02-28T09:39:32;2.70;8.90
3660;DHT22;1846;51.482;7.224;2023-02-28T09:42:21;2.70;8.70
3660;DHT22;1846;51.482;7.224;2023-02-28T09:44:53;2.80;8.90
3660;DHT22;1846;51.482;7.224;2023-02-28T10:01:31;6.80;24.30
3660;DHT22;1846;51.482;7.224;2023-02-28T10:04:12;8.00;27.30
3660;DHT22;1846;51.482;7.224;2023-02-28T10:15:47;11.60;45.80
3660;DHT22;1846;51.482;7.224;2023-02-28T10:18:24;11.60;45.50
3660;DHT22;1846;51.482;7.224;2023-02-28T10:20:56;12.10;49.00
3660;DHT22;1846;51.482;7.224;2023-02-28T10:23:28;12.70;53.00
3660;DHT22;1846;51.482;7.224;2023-02-28T10:26:01;13.00;54.30
3660;DHT22;1846;51.482;7.224;2023-02-28T10:28:30;12.50;49.90
3660;DHT22;1846;51.482;7.224;2023-02-28T10:31:01;12.80;51.70
3660;DHT22;1846;51.482;7.224;2023-02-28T10:33:32;12.30;47.50
3660;DHT22;1846;51.482;7.224;2023-02-28T10:36:00;12.20;46.40
3660;DHT22;1846;51.482;7.224;2023-02-28T10:38:33;11.40;38.30
3660;DHT22;1846;51.482;7.224;2023-02-28T10:41:33;11.40;38.40
3660;DHT22;1846;51.482;7.224;2023-02-28T10:44:17;11.00;37.50
3660;DHT22;1846;51.482;7.224;2023-02-28T10:46:45;10.90;36.50
3660;DHT22;1846;51.482;7.224;2023-02-28T10:49:19;11.40;37.80
3660;DHT22;1846;51.482;7.224;2023-02-28T10:51:53;12.10;44.90
3660;DHT22;1846;51.482;7.224;2023-02-28T10:54:28;13.00;51.50
3660;DHT22;1846;51.482;7.224;2023-02-28T10:57:15;12.40;45.50
3660;DHT22;1846;51.482;7.224;2023-02-28T11:02:49;11.30;37.60
3660;DHT22;1846;51.482;7.224;2023-02-28T11:05:30;11.90;39.90
3660;DHT22;1846;51.482;7.224;2023-02-28T11:08:04;11.80;39.20
3660;DHT22;1846;51.482;7.224;2023-02-28T11:10:43;12.50;45.00
3660;DHT22;1846;51.482;7.224;2023-02-28T11:13:16;13.00;49.70
3660;DHT22;1846;51.482;7.224;2023-02-28T11:15:51;13.50;52.50
3660;DHT22;1846;51.482;7.224;2023-02-28T11:18:23;13.80;54.90
3660;DHT22;1846;51.482;7.224;2023-02-28T11:20:54;13.90;55.00
3660;DHT22;1846;51.482;7.224;2023-02-28T11:26:52;13.60;51.60
3660;DHT22;1846;51.482;7.224;2023-02-28T11:29:28;12.70;43.70
3660;DHT22;1846;51.482;7.224;2023-02-28T11:32:04;11.60;36.40
3660;DHT22;1846;51.482;7.224;2023-02-28T11:34:32;11.90;38.70
3660;DHT22;1846;51.482;7.224;2023-02-28T11:37:01;12.60;44.40
3660;DHT22;1846;51.482;7.224;2023-02-28T11:39:31;13.20;48.30
3660;DHT22;1846;51.482;7.224;2023-02-28T11:42:23;13.80;52.80
3660;DHT22;1846;51.482;7.224;2023-02-28T11:48:37;14.60;58.30
3660;DHT22;1846;51.482;7.224;2023-02-28T11:51:18;14.60;58.00
3660;DHT22;1846;51.482;7.224;2023-02-28T11:57:19;13.50;49.10
3660;DHT22;1846;51.482;7.224;2023-02-28T11:59:57;11.80;33.40
3660;DHT22;1846;51.482;7.224;2023-02-28T12:02:29;11.10;29.10
3660;DHT22;1846;51.482;7.224;2023-02-28T12:05:14;12.20;39.10
3660;DHT22;1846;51.482;7.224;2023-02-28T12:07:50;13.00;44.50
3660;DHT22;1846;51.482;7.224;2023-02-28T12:10:23;14.20;53.80
3660;DHT22;1846;51.482;7.224;2023-02-28T12:13:08;14.20;52.80
3660;DHT22;1846;51.482;7.224;2023-02-28T12:19:01;13.00;40.90
3660;DHT22;1846;51.482;7.224;2023-02-28T12:21:36;11.10;28.10
3660;DHT22;1846;51.482;7.224;2023-02-28T12:24:22;10.10;21.50
3660;DHT22;1846;51.482;7.224;2023-02-28T12:26:53;9.50;18.50
3660;DHT22;1846;51.482;7.224;2023-02-28T12:29:26;9.30;17.70
3660;DHT22;1846;51.482;7.224;2023-02-28T12:32:01;9.20;17.00
3660;DHT22;1846;51.482;7.224;2023-02-28T12:34:34;9.30;17.60
3660;DHT22;1846;51.482;7.224;2023-02-28T12:37:07;9.30;17.50
3660;DHT22;1846;51.482;7.224;2023-02-28T12:39:40;9.00;15.60
3660;DHT22;1846;51.482;7.224;2023-02-28T12:42:11;8.60;12.70
3660;DHT22;1846;51.482;7.224;2023-02-28T12:44:46;8.40;11.60
3660;DHT22;1846;51.482;7.224;2023-02-28T12:47:18;8.30;10.90
3660;DHT22;1846;51.482;7.224;2023-02-28T12:49:50;8.60;13.10
3660;DHT22;1846;51.482;7.224;2023-02-28T12:52:23;7.90;9.00
3660;DHT22;1846;51.482;7.224;2023-02-28T12:54:55;7.70;7.90
3660;DHT22;1846;51.482;7.224;2023-02-28T12:57:31;7.90;8.90
3660;DHT22;1846;51.482;7.224;2023-02-28T13:00:03;7.90;8.80
3660;DHT22;1846;51.482;7.224;2023-02-28T13:03:00;8.00;9.20
3660;DHT22;1846;51.482;7.224;2023-02-28T13:11:25;7.70;7.90
3660;DHT22;1846;51.482;7.224;2023-02-28T13:13:58;7.70;15.30
3660;DHT22;1846;51.482;7.224;2023-02-28T13:16:27;7.70;7.40
3660;DHT22;1846;51.482;7.224;2023-02-28T13:19:08;7.60;6.60
3660;DHT22;1846;51.482;7.224;2023-02-28T13:21:42;7.50;5.90
3660;DHT22;1846;51.482;7.224;2023-02-28T13:24:11;7.40;5.40
3660;DHT22;1846;51.482;7.224;2023-02-28T13:27:23;7.40;5.80
3660;DHT22;1846;51.482;7.224;2023-02-28T13:29:52;7.30;5.30
3660;DHT22;1846;51.482;7.224;2023-02-28T13:32:35;7.00;3.90
3660;DHT22;1846;51.482;7.224;2023-02-28T13:35:36;6.80;2.80
3660;DHT22;1846;51.482;7.224;2023-02-28T13:38:23;6.90;3.80
3660;DHT22;1846;51.482;7.224;2023-02-28T13:40:50;7.20;5.60
3660;DHT22;1846;51.482;7.224;2023-02-28T13:43:18;7.40;6.50
3660;DHT22;1846;51.482;7.224;2023-02-28T13:46:08;7.50;7.10
3660;DHT22;1846;51.482;7.224;2023-02-28T13:48:38;7.50;6.90
3660;DHT22;1846;51.482;7.224;2023-02-28T13:51:36;7.40;6.20
3660;DHT22;1846;51.482;7.224;2023-02-28T13:54:22;7.40;6.40
3660;DHT22;1846;51.482;7.224;2023-02-28T13:57:00;7.50;6.90
3660;DHT22;1846;51.482;7.224;2023-02-28T13:59:35;7.40;6.40
3660;DHT22;1846;51.482;7.224;2023-02-28T14:02:34;7.20;6.30
3660;DHT22;1846;51.482;7.224;2023-02-28T14:05:13;7.50;7.80
3660;DHT22;1846;51.482;7.224;2023-02-28T14:07:44;7.80;16.30
3660;DHT22;1846;51.482;7.224;2023-02-28T14:10:24;7.40;6.10
3660;DHT22;1846;51.482;7.224;2023-02-28T14:13:00;7.10;4.40
3660;DHT22;1846;51.482;7.224;2023-02-28T14:18:28;7.30;6.20
3660;DHT22;1846;51.482;7.224;2023-02-28T14:21:02;7.10;5.10
3660;DHT22;1846;51.482;7.224;2023-02-28T14:29:51;6.50;2.20
3660;DHT22;1846;51.482;7.224;2023-02-28T14:32:28;6.50;2.20
3660;DHT22;1846;51.482;7.224;2023-02-28T14:35:05;6.50;2.30
3660;DHT22;1846;51.482;7.224;2023-02-28T14:37:39;6.40;2.40
3660;DHT22;1846;51.482;7.224;2023-02-28T14:40:16;6.30;1.90
3660;DHT22;1846;51.482;7.224;2023-02-28T14:42:47;6.20;1.10
3660;DHT22;1846;51.482;7.224;2023-02-28T14:45:19;6.10;1.00
3660;DHT22;1846;51.482;7.224;2023-02-28T14:47:47;6.00;1.00
3660;DHT22;1846;51.482;7.224;2023-02-28T14:50:20;5.70;1.00
3660;DHT22;1846;51.482;7.224;2023-02-28T14:52:52;5.60;1.00
3660;DHT22;1846;51.482;7.224;2023-02-28T14:55:24;5.60;1.00
3660;DHT22;1846;51.482;7.224;2023-02-28T14:57:53;5.50;1.00
3660;DHT22;1846;51.482;7.224;2023-02-28T15:00:23;5.50;1.00
3660;DHT22;1846;51.482;7.224;2023-02-28T15:02:50;5.60;1.00
3660;DHT22;1846;51.482;7.224;2023-02-28T15:05:29;5.40;1.00
3660;DHT22;1846;51.482;7.224;2023-02-28T15:08:10;5.50;1.00
3660;DHT22;1846;51.482;7.224;2023-02-28T15:10:38;5.50;1.00
3660;DHT22;1846;51.482;7.224;2023-02-28T15:13:07;5.40;1.00
3660;DHT22;1846;51.482;7.224;2023-02-28T15:15:44;5.40;1.00
3660;DHT22;1846;51.482;7.224;2023-02-28T15:18:16;5.40;1.00
3660;DHT22;1846;51.482;7.224;2023-02-28T15:20:49;5.40;1.00
3660;DHT22;1846;51.482;7.224;2023-02-28T15:23:18;5.50;1.00
3660;DHT22;1846;51.482;7.224;2023-02-28T15:25:46;5.50;1.00
3660;DHT22;1846;51.482;7.224;2023-02-28T15:28:17;5.50;1.00
3660;DHT22;1846;51.482;7.224;2023-02-28T15:30:56;5.50;1.00
3660;DHT22;1846;51.482;7.224;2023-02-28T15:33:25;5.50;1.00
3660;DHT22;1846;51.482;7.224;2023-02-28T15:36:10;5.60;1.00
3660;DHT22;1846;51.482;7.224;2023-02-28T15:38:39;5.60;1.00
3660;DHT22;1846;51.482;7.224;2023-02-28T15:41:22;5.60;1.00
3660;DHT22;1846;51.482;7.224;2023-02-28T15:44:15;5.60;1.00
3660;DHT22;1846;51.482;7.224;2023-02-28T15:46:44;5.60;1.00
3660;DHT22;1846;51.482;7.224;2023-02-28T15:49:18;5.60;1.00
3660;DHT22;1846;51.482;7.224;2023-02-28T15:51:45;5.60;1.00
3660;DHT22;1846;51.482;7.224;2023-02-28T15:54:20;5.60;1.00
3660;DHT22;1846;51.482;7.224;2023-02-28T15:56:51;5.50;1.00
3660;DHT22;1846;51.482;7.224;2023-02-28T15:59:23;5.50;1.00
3660;DHT22;1846;51.482;7.224;2023-02-28T16:02:04;5.40;1.00
3660;DHT22;1846;51.482;7.224;2023-02-28T16:04:55;5.40;1.00
3660;DHT22;1846;51.482;7.224;2023-02-28T16:07:22;5.60;1.30
3660;DHT22;1846;51.482;7.224;2023-02-28T16:09:49;5.50;1.00
3660;DHT22;1846;51.482;7.224;2023-02-28T16:12:16;5.40;1.00
3660;DHT22;1846;51.482;7.224;2023-02-28T16:14:45;5.20;1.00
3660;DHT22;1846;51.482;7.224;2023-02-28T16:17:19;5.20;1.00
3660;DHT22;1846;51.482;7.224;2023-02-28T16:19:46;5.20;7.50
3660;DHT22;1846;51.482;7.224;2023-02-28T16:22:13;5.20;1.00
3660;DHT22;1846;51.482;7.224;2023-02-28T16:24:40;5.10;1.00
3660;DHT22;1846;51.482;7.224;2023-02-28T16:27:14;5.10;1.00
3660;DHT22;1846;51.482;7.224;2023-02-28T16:29:42;5.10;1.00
3660;DHT22;1846;51.482;7.224;2023-02-28T16:32:12;5.00;1.00
3660;DHT22;1846;51.482;7.224;2023-02-28T16:34:40;5.00;1.00
3660;DHT22;1846;51.482;7.224;2023-02-28T16:37:12;5.10;1.00
3660;DHT22;1846;51.482;7.224;2023-02-28T16:39:40;5.10;1.00
3660;DHT22;1846;51.482;7.224;2023-02-28T16:42:11;5.00;1.00
3660;DHT22;1846;51.482;7.224;2023-02-28T16:44:41;5.00;1.00
3660;DHT22;1846;51.482;7.224;2023-02-28T16:47:11;4.90;1.00
3660;DHT22;1846;51.482;7.224;2023-02-28T16:49:38;4.90;1.00
3660;DHT22;1846;51.482;7.224;2023-02-28T16:52:07;4.90;1.00
3660;DHT22;1846;51.482;7.224;2023-02-28T16:54:34;4.90;1.00
3660;DHT22;1846;51.482;7.224;2023-02-28T16:57:02;4.90;1.00
3660;DHT22;1846;51.482;7.224;2023-02-28T16:59:29;4.90;1.00
3660;DHT22;1846;51.482;7.224;2023-02-28T17:01:56;4.80;1.00
3660;DHT22;1846;51.482;7.224;2023-02-28T17:04:25;4.80;1.00
3660;DHT22;1846;51.482;7.224;2023-02-28T17:06:52;4.80;1.00
3660;DHT22;1846;51.482;7.224;2023-02-28T17:09:23;4.80;1.00
3660;DHT22;1846;51.482;7.224;2023-02-28T17:11:50;4.70;1.00
3660;DHT22;1846;51.482;7.224;2023-02-28T17:14:17;4.70;1.00
3660;DHT22;1846;51.482;7.224;2023-02-28T17:16:44;4.70;1.00
3660;DHT22;1846;51.482;7.224;2023-02-28T17:19:13;4.70;1.00
3660;DHT22;1846;51.482;7.224;2023-02-28T17:21:42;4.70;1.00
3660;DHT22;1846;51.482;7.224;2023-02-28T17:24:10;4.60;1.00
3660;DHT22;1846;51.482;7.224;2023-02-28T17:26:38;4.60;1.00
3660;DHT22;1846;51.482;7.224;2023-02-28T17:29:10;4.60;1.00
3660;DHT22;1846;51.482;7.224;2023-02-28T17:31:39;4.50;1.00
3660;DHT22;1846;51.482;7.224;2023-02-28T17:34:06;4.60;7.30
3660;DHT22;1846;51.482;7.224;2023-02-28T17:36:34;4.50;1.00
3660;DHT22;1846;51.482;7.224;2023-02-28T17:39:04;4.50;1.00
3660;DHT22;1846;51.482;7.224;2023-02-28T17:41:35;4.50;1.00
3660;DHT22;1846;51.482;7.224;2023-02-28T17:44:02;4.40;1.00
3660;DHT22;1846;51.482;7.224;2023-02-28T17:46:29;4.40;1.00
3660;DHT22;1846;51.482;7.224;2023-02-28T17:48:55;4.40;1.00
3660;DHT22;1846;51.482;7.224;2023-02-28T17:51:23;4.40;1.00
3660;DHT22;1846;51.482;7.224;2023-02-28T17:53:50;4.40;1.00
3660;DHT22;1846;51.482;7.224;2023-02-28T17:56:20;4.30;1.00
3660;DHT22;1846;51.482;7.224;2023-02-28T17:58:49;4.30;1.00
3660;DHT22;1846;51.482;7.224;2023-02-28T18:01:16;4.40;1.40
3660;DHT22;1846;51.482;7.224;2023-02-28T18:03:43;4.30;1.40
3660;DHT22;1846;51.482;7.224;2023-02-28T18:06:14;4.30;1.00
3660;DHT22;1846;51.482;7.224;2023-02-28T18:08:42;4.20;1.20
3660;DHT22;1846;51.482;7.224;2023-02-28T18:11:08;4.30;1.70
3660;DHT22;1846;51.482;7.224;2023-02-28T18:13:44;4.30;1.90
3660;DHT22;1846;51.482;7.224;2023-02-28T18:16:12;4.20;1.50
3660;DHT22;1846;51.482;7.224;2023-02-28T18:18:39;4.10;1.40
3660;DHT22;1846;51.482;7.224;2023-02-28T18:21:06;4.10;1.50
3660;DHT22;1846;51.482;7.224;2023-02-28T18:23:34;4.10;1.30
3660;DHT22;1846;51.482;7.224;2023-02-28T18:26:04;4.00;1.70